Goodfood, Mississippi
Current Conditions -  °F | °C
As of 10:53 AM on Saturday 20 Dec 2014 (Local Time) from KTUP Reporting Station
Clear Clear  
Wind Chill: 44°   Ceiling: Unl
Heat Index: 47°   Visibility: 10mi
Dew Point: 32°   Wind: 7mph
Humidity: 56%   Direction: 70°ENE
Pressure: 30.27"   Gusts: NA
Location:  34.1762°N, 88.9612°W
Report Text: KTUP 201653Z 07006KT 10SM CLR 08/00 A3027 RMK AO2 SLP249 T00830000
Loading
Personal Weather Stations






























Interactive Weather Map New forecast layout! Learn more

10-Day Weather Forecast

Advertisements
Track Severe Weather on mobile